sensor_id;sensor_type;location;lat;lon;timestamp;temperature;humidity
18147;DHT22;9199;48.832;9.182;2024-03-06T00:00:25;7.10;99.90
18147;DHT22;9199;48.832;9.182;2024-03-06T00:02:52;7.00;99.90
18147;DHT22;9199;48.832;9.182;2024-03-06T00:05:20;7.00;99.90
18147;DHT22;9199;48.832;9.182;2024-03-06T00:07:47;7.00;99.90
18147;DHT22;9199;48.832;9.182;2024-03-06T00:10:14;7.00;99.90
18147;DHT22;9199;48.832;9.182;2024-03-06T00:12:41;7.00;99.90
18147;DHT22;9199;48.832;9.182;2024-03-06T00:15:08;7.00;99.90
18147;DHT22;9199;48.832;9.182;2024-03-06T00:17:34;7.00;99.90
18147;DHT22;9199;48.832;9.182;2024-03-06T00:20:01;7.00;99.90
18147;DHT22;9199;48.832;9.182;2024-03-06T00:22:31;7.10;99.90
18147;DHT22;9199;48.832;9.182;2024-03-06T00:24:58;7.10;99.90
18147;DHT22;9199;48.832;9.182;2024-03-06T00:27:25;7.10;99.90
18147;DHT22;9199;48.832;9.182;2024-03-06T00:29:51;7.10;99.90
18147;DHT22;9199;48.832;9.182;2024-03-06T00:32:18;7.10;99.90
18147;DHT22;9199;48.832;9.182;2024-03-06T00:34:45;7.10;99.90
18147;DHT22;9199;48.832;9.182;2024-03-06T00:37:11;7.10;99.90
18147;DHT22;9199;48.832;9.182;2024-03-06T00:39:39;7.10;99.90
18147;DHT22;9199;48.832;9.182;2024-03-06T00:42:06;7.10;99.90
18147;DHT22;9199;48.832;9.182;2024-03-06T00:44:34;7.10;99.90
18147;DHT22;9199;48.832;9.182;2024-03-06T00:47:01;7.10;99.90
18147;DHT22;9199;48.832;9.182;2024-03-06T00:49:27;7.20;99.90
18147;DHT22;9199;48.832;9.182;2024-03-06T00:51:54;7.10;99.90
18147;DHT22;9199;48.832;9.182;2024-03-06T00:54:21;7.20;99.90
18147;DHT22;9199;48.832;9.182;2024-03-06T00:56:49;7.10;99.90
18147;DHT22;9199;48.832;9.182;2024-03-06T00:59:15;7.10;99.90
18147;DHT22;9199;48.832;9.182;2024-03-06T01:01:42;7.10;99.90
18147;DHT22;9199;48.832;9.182;2024-03-06T01:04:09;7.00;99.90
18147;DHT22;9199;48.832;9.182;2024-03-06T01:06:36;7.00;99.90
18147;DHT22;9199;48.832;9.182;2024-03-06T01:09:03;6.90;99.90
18147;DHT22;9199;48.832;9.182;2024-03-06T01:11:29;6.90;99.90
18147;DHT22;9199;48.832;9.182;2024-03-06T01:13:57;6.90;99.90
18147;DHT22;9199;48.832;9.182;2024-03-06T01:16:25;6.90;99.90
18147;DHT22;9199;48.832;9.182;2024-03-06T01:18:51;6.90;99.90
18147;DHT22;9199;48.832;9.182;2024-03-06T01:21:18;6.90;99.90
18147;DHT22;9199;48.832;9.182;2024-03-06T01:23:45;6.90;99.90
18147;DHT22;9199;48.832;9.182;2024-03-06T01:26:12;6.90;99.90
18147;DHT22;9199;48.832;9.182;2024-03-06T01:28:38;6.90;99.90
18147;DHT22;9199;48.832;9.182;2024-03-06T01:31:07;6.90;99.90
18147;DHT22;9199;48.832;9.182;2024-03-06T01:33:34;6.90;99.90
18147;DHT22;9199;48.832;9.182;2024-03-06T01:36:01;6.90;99.90
18147;DHT22;9199;48.832;9.182;2024-03-06T01:38:27;6.90;99.90
18147;DHT22;9199;48.832;9.182;2024-03-06T01:40:54;6.80;99.90
18147;DHT22;9199;48.832;9.182;2024-03-06T01:43:22;6.80;99.90
18147;DHT22;9199;48.832;9.182;2024-03-06T01:45:49;6.70;99.90
18147;DHT22;9199;48.832;9.182;2024-03-06T01:48:18;6.70;99.90
18147;DHT22;9199;48.832;9.182;2024-03-06T01:50:46;6.70;99.90
18147;DHT22;9199;48.832;9.182;2024-03-06T01:53:12;6.70;99.90
18147;DHT22;9199;48.832;9.182;2024-03-06T01:55:39;6.80;99.90
18147;DHT22;9199;48.832;9.182;2024-03-06T01:58:07;6.80;99.90
18147;DHT22;9199;48.832;9.182;2024-03-06T02:00:34;6.90;99.90
18147;DHT22;9199;48.832;9.182;2024-03-06T02:03:01;6.80;99.90
18147;DHT22;9199;48.832;9.182;2024-03-06T02:05:30;6.90;99.90
18147;DHT22;9199;48.832;9.182;2024-03-06T02:07:58;6.80;99.90
18147;DHT22;9199;48.832;9.182;2024-03-06T02:10:27;6.70;99.90
18147;DHT22;9199;48.832;9.182;2024-03-06T02:12:54;6.60;99.90
18147;DHT22;9199;48.832;9.182;2024-03-06T02:15:21;6.50;99.90
18147;DHT22;9199;48.832;9.182;2024-03-06T02:17:48;6.50;99.90
18147;DHT22;9199;48.832;9.182;2024-03-06T02:20:15;6.50;99.90
18147;DHT22;9199;48.832;9.182;2024-03-06T02:22:43;6.50;99.90
18147;DHT22;9199;48.832;9.182;2024-03-06T02:25:11;6.40;99.90
18147;DHT22;9199;48.832;9.182;2024-03-06T02:27:38;6.40;99.90
18147;DHT22;9199;48.832;9.182;2024-03-06T02:30:06;6.40;99.90
18147;DHT22;9199;48.832;9.182;2024-03-06T02:32:33;6.40;99.90
18147;DHT22;9199;48.832;9.182;2024-03-06T02:35:00;6.40;99.90
18147;DHT22;9199;48.832;9.182;2024-03-06T02:37:28;6.40;99.90
18147;DHT22;9199;48.832;9.182;2024-03-06T02:39:56;6.40;99.90
18147;DHT22;9199;48.832;9.182;2024-03-06T02:42:23;6.40;99.90
18147;DHT22;9199;48.832;9.182;2024-03-06T02:44:49;6.40;99.90
18147;DHT22;9199;48.832;9.182;2024-03-06T02:47:16;6.40;99.90
18147;DHT22;9199;48.832;9.182;2024-03-06T02:49:43;6.40;99.90
18147;DHT22;9199;48.832;9.182;2024-03-06T02:52:09;6.40;99.90
18147;DHT22;9199;48.832;9.182;2024-03-06T02:54:36;6.40;99.90
18147;DHT22;9199;48.832;9.182;2024-03-06T02:57:04;6.40;99.90
18147;DHT22;9199;48.832;9.182;2024-03-06T02:59:31;6.40;99.90
18147;DHT22;9199;48.832;9.182;2024-03-06T03:01:57;6.40;99.90
18147;DHT22;9199;48.832;9.182;2024-03-06T03:04:25;6.40;99.90
18147;DHT22;9199;48.832;9.182;2024-03-06T03:06:52;6.40;99.90
18147;DHT22;9199;48.832;9.182;2024-03-06T03:09:19;6.40;99.90
18147;DHT22;9199;48.832;9.182;2024-03-06T03:11:46;6.50;99.90
18147;DHT22;9199;48.832;9.182;2024-03-06T03:14:14;6.50;99.90
18147;DHT22;9199;48.832;9.182;2024-03-06T03:16:41;6.50;99.90
18147;DHT22;9199;48.832;9.182;2024-03-06T03:19:08;6.50;99.90
18147;DHT22;9199;48.832;9.182;2024-03-06T03:21:35;6.50;99.90
18147;DHT22;9199;48.832;9.182;2024-03-06T03:24:01;6.50;99.90
18147;DHT22;9199;48.832;9.182;2024-03-06T03:26:28;6.50;99.90
18147;DHT22;9199;48.832;9.182;2024-03-06T03:28:55;6.60;99.90
18147;DHT22;9199;48.832;9.182;2024-03-06T03:31:23;6.60;99.90
18147;DHT22;9199;48.832;9.182;2024-03-06T03:33:50;6.50;99.90
18147;DHT22;9199;48.832;9.182;2024-03-06T03:36:16;6.60;99.90
18147;DHT22;9199;48.832;9.182;2024-03-06T03:38:43;6.60;99.90
18147;DHT22;9199;48.832;9.182;2024-03-06T03:41:10;6.60;99.90
18147;DHT22;9199;48.832;9.182;2024-03-06T03:43:38;6.60;99.90
18147;DHT22;9199;48.832;9.182;2024-03-06T03:46:06;6.70;99.90
18147;DHT22;9199;48.832;9.182;2024-03-06T03:48:34;6.60;99.90
18147;DHT22;9199;48.832;9.182;2024-03-06T03:51:02;6.60;99.90
18147;DHT22;9199;48.832;9.182;2024-03-06T03:53:30;6.70;99.90
18147;DHT22;9199;48.832;9.182;2024-03-06T03:55:56;6.70;99.90
18147;DHT22;9199;48.832;9.182;2024-03-06T03:58:23;6.70;99.90
18147;DHT22;9199;48.832;9.182;2024-03-06T04:00:50;6.70;99.90
18147;DHT22;9199;48.832;9.182;2024-03-06T04:03:18;6.70;99.90
18147;DHT22;9199;48.832;9.182;2024-03-06T04:05:46;6.70;99.90
18147;DHT22;9199;48.832;9.182;2024-03-06T04:08:13;6.70;99.90
18147;DHT22;9199;48.832;9.182;2024-03-06T04:10:41;6.70;99.90
18147;DHT22;9199;48.832;9.182;2024-03-06T04:13:10;6.70;99.90
18147;DHT22;9199;48.832;9.182;2024-03-06T04:15:37;6.70;99.90
18147;DHT22;9199;48.832;9.182;2024-03-06T04:18:04;6.70;99.90
18147;DHT22;9199;48.832;9.182;2024-03-06T04:20:31;6.70;99.90
18147;DHT22;9199;48.832;9.182;2024-03-06T04:22:59;6.70;99.90
18147;DHT22;9199;48.832;9.182;2024-03-06T04:25:25;6.70;99.90
18147;DHT22;9199;48.832;9.182;2024-03-06T04:27:52;6.70;99.90
18147;DHT22;9199;48.832;9.182;2024-03-06T04:30:19;6.70;99.90
18147;DHT22;9199;48.832;9.182;2024-03-06T04:32:46;6.70;99.90
18147;DHT22;9199;48.832;9.182;2024-03-06T04:35:13;6.70;99.90
18147;DHT22;9199;48.832;9.182;2024-03-06T04:37:40;6.70;99.90
18147;DHT22;9199;48.832;9.182;2024-03-06T04:40:09;6.70;99.90
18147;DHT22;9199;48.832;9.182;2024-03-06T04:42:36;6.70;99.90
18147;DHT22;9199;48.832;9.182;2024-03-06T04:45:02;6.60;99.90
18147;DHT22;9199;48.832;9.182;2024-03-06T04:47:29;6.60;99.90
18147;DHT22;9199;48.832;9.182;2024-03-06T04:49:57;6.60;99.90
18147;DHT22;9199;48.832;9.182;2024-03-06T04:52:24;6.70;99.90
18147;DHT22;9199;48.832;9.182;2024-03-06T04:54:51;6.60;99.90
18147;DHT22;9199;48.832;9.182;2024-03-06T04:57:19;6.70;99.90
18147;DHT22;9199;48.832;9.182;2024-03-06T04:59:45;6.60;99.90
18147;DHT22;9199;48.832;9.182;2024-03-06T05:02:12;6.70;99.90
18147;DHT22;9199;48.832;9.182;2024-03-06T05:04:39;6.60;99.90
18147;DHT22;9199;48.832;9.182;2024-03-06T05:07:05;6.70;99.90
18147;DHT22;9199;48.832;9.182;2024-03-06T05:09:32;6.60;99.90
18147;DHT22;9199;48.832;9.182;2024-03-06T05:11:59;6.60;99.90
18147;DHT22;9199;48.832;9.182;2024-03-06T05:14:27;6.60;99.90
18147;DHT22;9199;48.832;9.182;2024-03-06T05:16:54;6.60;99.90
18147;DHT22;9199;48.832;9.182;2024-03-06T05:19:21;6.60;99.90
18147;DHT22;9199;48.832;9.182;2024-03-06T05:21:47;6.50;99.90
18147;DHT22;9199;48.832;9.182;2024-03-06T05:24:14;6.50;99.90
18147;DHT22;9199;48.832;9.182;2024-03-06T05:26:41;6.50;99.90
18147;DHT22;9199;48.832;9.182;2024-03-06T05:29:07;6.50;99.90
18147;DHT22;9199;48.832;9.182;2024-03-06T05:31:36;6.50;99.90
18147;DHT22;9199;48.832;9.182;2024-03-06T05:34:02;6.50;99.90
18147;DHT22;9199;48.832;9.182;2024-03-06T05:36:30;6.50;99.90
18147;DHT22;9199;48.832;9.182;2024-03-06T05:38:57;6.50;99.90
18147;DHT22;9199;48.832;9.182;2024-03-06T05:41:24;6.50;99.90
18147;DHT22;9199;48.832;9.182;2024-03-06T05:43:50;6.50;99.90
18147;DHT22;9199;48.832;9.182;2024-03-06T05:46:17;6.40;99.90
18147;DHT22;9199;48.832;9.182;2024-03-06T05:48:46;6.40;99.90
18147;DHT22;9199;48.832;9.182;2024-03-06T05:51:13;6.40;99.90
18147;DHT22;9199;48.832;9.182;2024-03-06T05:53:40;6.40;99.90
18147;DHT22;9199;48.832;9.182;2024-03-06T05:56:08;6.40;99.90
18147;DHT22;9199;48.832;9.182;2024-03-06T05:58:34;6.40;99.90
18147;DHT22;9199;48.832;9.182;2024-03-06T06:01:01;6.40;99.90
18147;DHT22;9199;48.832;9.182;2024-03-06T06:03:28;6.40;99.90
18147;DHT22;9199;48.832;9.182;2024-03-06T06:05:57;6.50;99.90
18147;DHT22;9199;48.832;9.182;2024-03-06T06:08:24;7.10;99.90
18147;DHT22;9199;48.832;9.182;2024-03-06T06:10:51;7.50;99.90
18147;DHT22;9199;48.832;9.182;2024-03-06T06:13:18;7.90;99.90
18147;DHT22;9199;48.832;9.182;2024-03-06T06:15:44;8.20;99.90
18147;DHT22;9199;48.832;9.182;2024-03-06T06:18:11;8.70;99.90
18147;DHT22;9199;48.832;9.182;2024-03-06T06:20:40;8.80;99.90
18147;DHT22;9199;48.832;9.182;2024-03-06T06:23:08;8.50;99.90
18147;DHT22;9199;48.832;9.182;2024-03-06T06:25:35;8.10;99.90
18147;DHT22;9199;48.832;9.182;2024-03-06T06:28:02;7.80;99.90
18147;DHT22;9199;48.832;9.182;2024-03-06T06:30:29;7.60;99.90
18147;DHT22;9199;48.832;9.182;2024-03-06T06:32:56;7.40;99.90
18147;DHT22;9199;48.832;9.182;2024-03-06T06:35:22;7.20;99.90
18147;DHT22;9199;48.832;9.182;2024-03-06T06:37:50;7.10;99.90
18147;DHT22;9199;48.832;9.182;2024-03-06T06:40:19;7.00;99.90
18147;DHT22;9199;48.832;9.182;2024-03-06T06:42:47;7.00;99.90
18147;DHT22;9199;48.832;9.182;2024-03-06T06:45:15;6.90;99.90
18147;DHT22;9199;48.832;9.182;2024-03-06T06:47:42;6.90;99.90
18147;DHT22;9199;48.832;9.182;2024-03-06T06:50:09;6.90;99.90
18147;DHT22;9199;48.832;9.182;2024-03-06T06:52:37;6.90;99.90
18147;DHT22;9199;48.832;9.182;2024-03-06T06:55:04;6.90;99.90
18147;DHT22;9199;48.832;9.182;2024-03-06T06:57:32;6.90;99.90
18147;DHT22;9199;48.832;9.182;2024-03-06T07:00:00;6.90;99.90
18147;DHT22;9199;48.832;9.182;2024-03-06T07:02:28;6.90;99.90
18147;DHT22;9199;48.832;9.182;2024-03-06T07:04:55;6.90;99.90
18147;DHT22;9199;48.832;9.182;2024-03-06T07:07:22;6.90;99.90
18147;DHT22;9199;48.832;9.182;2024-03-06T07:09:49;6.90;99.90
18147;DHT22;9199;48.832;9.182;2024-03-06T07:12:16;6.90;99.90
18147;DHT22;9199;48.832;9.182;2024-03-06T07:14:44;7.00;99.90
18147;DHT22;9199;48.832;9.182;2024-03-06T07:17:10;6.90;99.90
18147;DHT22;9199;48.832;9.182;2024-03-06T07:19:37;6.90;99.90
18147;DHT22;9199;48.832;9.182;2024-03-06T07:22:04;6.90;99.90
18147;DHT22;9199;48.832;9.182;2024-03-06T07:24:31;6.90;99.90
18147;DHT22;9199;48.832;9.182;2024-03-06T07:26:58;6.90;99.90
18147;DHT22;9199;48.832;9.182;2024-03-06T07:29:27;6.80;99.90
18147;DHT22;9199;48.832;9.182;2024-03-06T07:31:55;6.80;99.90
18147;DHT22;9199;48.832;9.182;2024-03-06T07:34:22;6.80;99.90
18147;DHT22;9199;48.832;9.182;2024-03-06T07:36:48;6.80;99.90
18147;DHT22;9199;48.832;9.182;2024-03-06T07:39:15;6.90;99.90
18147;DHT22;9199;48.832;9.182;2024-03-06T07:41:42;6.90;99.90
18147;DHT22;9199;48.832;9.182;2024-03-06T07:44:09;6.90;99.90
18147;DHT22;9199;48.832;9.182;2024-03-06T07:46:36;7.00;99.90
18147;DHT22;9199;48.832;9.182;2024-03-06T07:49:04;7.00;99.90
18147;DHT22;9199;48.832;9.182;2024-03-06T07:51:31;7.00;99.90
18147;DHT22;9199;48.832;9.182;2024-03-06T07:53:58;7.10;99.90
18147;DHT22;9199;48.832;9.182;2024-03-06T07:56:26;7.10;99.90
18147;DHT22;9199;48.832;9.182;2024-03-06T07:58:53;7.10;99.90
18147;DHT22;9199;48.832;9.182;2024-03-06T08:01:20;7.20;99.90
18147;DHT22;9199;48.832;9.182;2024-03-06T08:03:47;7.20;99.90
18147;DHT22;9199;48.832;9.182;2024-03-06T08:06:15;7.20;99.90
18147;DHT22;9199;48.832;9.182;2024-03-06T08:08:43;7.20;99.90
18147;DHT22;9199;48.832;9.182;2024-03-06T08:11:11;7.30;99.90
18147;DHT22;9199;48.832;9.182;2024-03-06T08:13:38;7.30;99.90
18147;DHT22;9199;48.832;9.182;2024-03-06T08:16:05;7.30;99.90
18147;DHT22;9199;48.832;9.182;2024-03-06T08:18:33;7.30;99.90
18147;DHT22;9199;48.832;9.182;2024-03-06T08:21:00;7.30;99.90
18147;DHT22;9199;48.832;9.182;2024-03-06T08:23:28;7.40;99.90
18147;DHT22;9199;48.832;9.182;2024-03-06T08:25:55;7.40;99.90
18147;DHT22;9199;48.832;9.182;2024-03-06T08:28:22;7.50;99.90
18147;DHT22;9199;48.832;9.182;2024-03-06T08:30:49;7.50;99.90
18147;DHT22;9199;48.832;9.182;2024-03-06T08:33:17;7.50;99.90
18147;DHT22;9199;48.832;9.182;2024-03-06T08:35:46;7.60;99.90
18147;DHT22;9199;48.832;9.182;2024-03-06T08:38:13;7.80;99.90
18147;DHT22;9199;48.832;9.182;2024-03-06T08:40:41;7.90;99.90
18147;DHT22;9199;48.832;9.182;2024-03-06T08:43:10;8.00;99.90
18147;DHT22;9199;48.832;9.182;2024-03-06T08:45:38;8.00;99.90
18147;DHT22;9199;48.832;9.182;2024-03-06T08:48:05;8.00;99.90
18147;DHT22;9199;48.832;9.182;2024-03-06T08:50:32;8.00;99.90
18147;DHT22;9199;48.832;9.182;2024-03-06T08:52:58;7.90;99.90
18147;DHT22;9199;48.832;9.182;2024-03-06T08:55:26;7.90;99.90
18147;DHT22;9199;48.832;9.182;2024-03-06T08:57:55;7.90;99.90
18147;DHT22;9199;48.832;9.182;2024-03-06T09:00:21;7.70;99.90
18147;DHT22;9199;48.832;9.182;2024-03-06T09:02:48;7.60;99.90
18147;DHT22;9199;48.832;9.182;2024-03-06T09:05:16;7.60;99.90
18147;DHT22;9199;48.832;9.182;2024-03-06T09:07:43;7.50;99.90
18147;DHT22;9199;48.832;9.182;2024-03-06T09:10:10;7.40;99.90
18147;DHT22;9199;48.832;9.182;2024-03-06T09:12:37;7.50;99.90
18147;DHT22;9199;48.832;9.182;2024-03-06T09:15:06;7.50;99.90
18147;DHT22;9199;48.832;9.182;2024-03-06T09:17:34;7.60;99.90
18147;DHT22;9199;48.832;9.182;2024-03-06T09:20:01;7.70;99.90
18147;DHT22;9199;48.832;9.182;2024-03-06T09:22:35;7.80;99.90
18147;DHT22;9199;48.832;9.182;2024-03-06T09:25:03;7.90;99.90
18147;DHT22;9199;48.832;9.182;2024-03-06T09:27:30;7.90;99.90
18147;DHT22;9199;48.832;9.182;2024-03-06T09:29:57;7.90;99.90
18147;DHT22;9199;48.832;9.182;2024-03-06T09:32:25;7.80;99.90
18147;DHT22;9199;48.832;9.182;2024-03-06T09:34:52;7.90;99.90
18147;DHT22;9199;48.832;9.182;2024-03-06T09:37:18;7.80;99.90
18147;DHT22;9199;48.832;9.182;2024-03-06T09:39:45;7.80;99.90
18147;DHT22;9199;48.832;9.182;2024-03-06T09:42:13;7.70;99.90
18147;DHT22;9199;48.832;9.182;2024-03-06T09:44:40;7.70;99.90
18147;DHT22;9199;48.832;9.182;2024-03-06T09:47:07;7.70;99.90
18147;DHT22;9199;48.832;9.182;2024-03-06T09:49:37;7.70;99.90
18147;DHT22;9199;48.832;9.182;2024-03-06T09:52:04;7.70;99.90
18147;DHT22;9199;48.832;9.182;2024-03-06T09:54:31;7.70;99.90
18147;DHT22;9199;48.832;9.182;2024-03-06T09:56:57;7.60;99.90
18147;DHT22;9199;48.832;9.182;2024-03-06T09:59:24;7.60;99.90
18147;DHT22;9199;48.832;9.182;2024-03-06T10:01:54;7.70;99.90
18147;DHT22;9199;48.832;9.182;2024-03-06T10:04:22;7.80;99.90
18147;DHT22;9199;48.832;9.182;2024-03-06T10:06:52;7.70;99.90
18147;DHT22;9199;48.832;9.182;2024-03-06T10:09:20;7.80;99.90
18147;DHT22;9199;48.832;9.182;2024-03-06T10:11:47;7.70;99.90
18147;DHT22;9199;48.832;9.182;2024-03-06T10:14:15;7.70;99.90
18147;DHT22;9199;48.832;9.182;2024-03-06T10:16:52;7.70;99.90
18147;DHT22;9199;48.832;9.182;2024-03-06T10:19:19;7.90;99.90
18147;DHT22;9199;48.832;9.182;2024-03-06T10:21:47;7.90;99.90
18147;DHT22;9199;48.832;9.182;2024-03-06T10:24:18;7.90;99.90
18147;DHT22;9199;48.832;9.182;2024-03-06T10:26:47;7.90;99.90
18147;DHT22;9199;48.832;9.182;2024-03-06T10:29:15;8.00;99.90
18147;DHT22;9199;48.832;9.182;2024-03-06T10:31:48;8.00;99.90
18147;DHT22;9199;48.832;9.182;2024-03-06T10:34:15;8.00;99.90
18147;DHT22;9199;48.832;9.182;2024-03-06T10:36:42;8.00;99.90
18147;DHT22;9199;48.832;9.182;2024-03-06T10:39:11;8.10;99.90
18147;DHT22;9199;48.832;9.182;2024-03-06T10:41:40;8.10;99.90
18147;DHT22;9199;48.832;9.182;2024-03-06T10:44:11;8.20;99.90
18147;DHT22;9199;48.832;9.182;2024-03-06T10:46:43;8.20;99.90
18147;DHT22;9199;48.832;9.182;2024-03-06T10:49:11;8.20;99.90
18147;DHT22;9199;48.832;9.182;2024-03-06T10:51:40;8.30;99.90
18147;DHT22;9199;48.832;9.182;2024-03-06T10:54:09;8.20;99.90
18147;DHT22;9199;48.832;9.182;2024-03-06T10:56:39;8.20;99.90
18147;DHT22;9199;48.832;9.182;2024-03-06T10:59:10;8.20;99.90
18147;DHT22;9199;48.832;9.182;2024-03-06T11:01:39;8.20;99.90
18147;DHT22;9199;48.832;9.182;2024-03-06T11:04:06;8.10;99.90
18147;DHT22;9199;48.832;9.182;2024-03-06T11:06:33;8.10;99.90
18147;DHT22;9199;48.832;9.182;2024-03-06T11:09:00;8.10;99.90
18147;DHT22;9199;48.832;9.182;2024-03-06T11:11:27;8.00;99.90
18147;DHT22;9199;48.832;9.182;2024-03-06T11:14:00;8.00;99.90
18147;DHT22;9199;48.832;9.182;2024-03-06T11:16:28;7.90;99.90
18147;DHT22;9199;48.832;9.182;2024-03-06T11:19:05;7.80;99.90
18147;DHT22;9199;48.832;9.182;2024-03-06T11:21:33;7.80;99.90
18147;DHT22;9199;48.832;9.182;2024-03-06T11:24:16;7.80;99.90
18147;DHT22;9199;48.832;9.182;2024-03-06T11:26:46;7.80;99.90
18147;DHT22;9199;48.832;9.182;2024-03-06T11:29:17;7.70;99.90
18147;DHT22;9199;48.832;9.182;2024-03-06T11:32:00;7.70;99.90
18147;DHT22;9199;48.832;9.182;2024-03-06T11:34:28;7.70;99.90
18147;DHT22;9199;48.832;9.182;2024-03-06T11:36:57;7.70;99.90
18147;DHT22;9199;48.832;9.182;2024-03-06T11:39:24;7.70;99.90
18147;DHT22;9199;48.832;9.182;2024-03-06T11:41:54;7.80;99.90
18147;DHT22;9199;48.832;9.182;2024-03-06T11:44:23;7.80;99.90
18147;DHT22;9199;48.832;9.182;2024-03-06T11:46:57;7.70;99.90
18147;DHT22;9199;48.832;9.182;2024-03-06T11:49:25;7.70;99.90
18147;DHT22;9199;48.832;9.182;2024-03-06T11:51:55;7.70;99.90
18147;DHT22;9199;48.832;9.182;2024-03-06T11:54:22;7.70;99.90
18147;DHT22;9199;48.832;9.182;2024-03-06T11:56:51;7.80;99.90
18147;DHT22;9199;48.832;9.182;2024-03-06T11:59:22;7.80;99.90
18147;DHT22;9199;48.832;9.182;2024-03-06T12:01:50;7.90;99.90
18147;DHT22;9199;48.832;9.182;2024-03-06T12:04:17;7.90;99.90
18147;DHT22;9199;48.832;9.182;2024-03-06T12:06:44;8.00;99.90
18147;DHT22;9199;48.832;9.182;2024-03-06T12:09:11;8.10;99.90
18147;DHT22;9199;48.832;9.182;2024-03-06T12:11:38;8.20;99.90
18147;DHT22;9199;48.832;9.182;2024-03-06T12:14:05;8.30;99.90
18147;DHT22;9199;48.832;9.182;2024-03-06T12:16:33;8.40;99.90
18147;DHT22;9199;48.832;9.182;2024-03-06T12:18:59;8.40;99.90
18147;DHT22;9199;48.832;9.182;2024-03-06T12:21:28;8.40;99.90
18147;DHT22;9199;48.832;9.182;2024-03-06T12:24:02;8.40;99.90
18147;DHT22;9199;48.832;9.182;2024-03-06T12:26:29;8.40;99.90
18147;DHT22;9199;48.832;9.182;2024-03-06T12:29:07;8.40;99.90
18147;DHT22;9199;48.832;9.182;2024-03-06T12:31:37;8.40;99.90
18147;DHT22;9199;48.832;9.182;2024-03-06T12:34:05;8.50;99.90
18147;DHT22;9199;48.832;9.182;2024-03-06T12:36:33;8.50;99.90
18147;DHT22;9199;48.832;9.182;2024-03-06T12:39:01;8.50;99.90
18147;DHT22;9199;48.832;9.182;2024-03-06T12:41:28;8.50;99.90
18147;DHT22;9199;48.832;9.182;2024-03-06T12:43:56;8.50;99.90
18147;DHT22;9199;48.832;9.182;2024-03-06T12:46:23;8.40;99.90
18147;DHT22;9199;48.832;9.182;2024-03-06T12:48:53;8.40;99.90
18147;DHT22;9199;48.832;9.182;2024-03-06T12:51:19;8.30;99.90
18147;DHT22;9199;48.832;9.182;2024-03-06T12:53:47;8.20;99.90
18147;DHT22;9199;48.832;9.182;2024-03-06T12:56:14;8.20;99.90
18147;DHT22;9199;48.832;9.182;2024-03-06T12:58:41;8.20;99.90
18147;DHT22;9199;48.832;9.182;2024-03-06T13:01:08;8.20;99.90
18147;DHT22;9199;48.832;9.182;2024-03-06T13:03:35;8.10;99.90
18147;DHT22;9199;48.832;9.182;2024-03-06T13:06:04;8.10;99.90
18147;DHT22;9199;48.832;9.182;2024-03-06T13:08:31;8.10;99.90
18147;DHT22;9199;48.832;9.182;2024-03-06T13:10:58;8.00;99.90
18147;DHT22;9199;48.832;9.182;2024-03-06T13:13:25;8.00;99.90
18147;DHT22;9199;48.832;9.182;2024-03-06T13:15:54;8.00;99.90
18147;DHT22;9199;48.832;9.182;2024-03-06T13:18:21;8.00;99.90
18147;DHT22;9199;48.832;9.182;2024-03-06T13:20:48;8.00;99.90
18147;DHT22;9199;48.832;9.182;2024-03-06T13:23:16;8.10;99.90
18147;DHT22;9199;48.832;9.182;2024-03-06T13:25:43;8.10;99.90
18147;DHT22;9199;48.832;9.182;2024-03-06T13:28:11;8.10;99.90
18147;DHT22;9199;48.832;9.182;2024-03-06T13:30:38;8.20;99.90
18147;DHT22;9199;48.832;9.182;2024-03-06T13:33:04;8.20;99.90
18147;DHT22;9199;48.832;9.182;2024-03-06T13:35:33;8.20;99.90
18147;DHT22;9199;48.832;9.182;2024-03-06T13:38:00;8.20;99.90
18147;DHT22;9199;48.832;9.182;2024-03-06T13:40:29;8.30;99.90
18147;DHT22;9199;48.832;9.182;2024-03-06T13:42:56;8.30;99.90
18147;DHT22;9199;48.832;9.182;2024-03-06T13:45:23;8.30;99.90
18147;DHT22;9199;48.832;9.182;2024-03-06T13:47:49;8.20;99.90
18147;DHT22;9199;48.832;9.182;2024-03-06T13:50:17;8.20;99.90
18147;DHT22;9199;48.832;9.182;2024-03-06T13:52:44;8.20;99.90
18147;DHT22;9199;48.832;9.182;2024-03-06T13:55:11;8.20;99.90
18147;DHT22;9199;48.832;9.182;2024-03-06T13:57:40;8.10;99.90
18147;DHT22;9199;48.832;9.182;2024-03-06T14:00:08;8.10;99.90
18147;DHT22;9199;48.832;9.182;2024-03-06T14:02:42;8.10;99.90
18147;DHT22;9199;48.832;9.182;2024-03-06T14:05:09;8.00;99.90
18147;DHT22;9199;48.832;9.182;2024-03-06T14:07:36;8.10;99.90
18147;DHT22;9199;48.832;9.182;2024-03-06T14:10:03;8.10;99.90
18147;DHT22;9199;48.832;9.182;2024-03-06T14:12:30;8.00;99.90
18147;DHT22;9199;48.832;9.182;2024-03-06T14:14:58;8.10;99.90
18147;DHT22;9199;48.832;9.182;2024-03-06T14:17:24;8.00;99.90
18147;DHT22;9199;48.832;9.182;2024-03-06T14:19:51;8.00;99.90
18147;DHT22;9199;48.832;9.182;2024-03-06T14:22:18;8.00;99.90
18147;DHT22;9199;48.832;9.182;2024-03-06T14:24:44;7.90;99.90
18147;DHT22;9199;48.832;9.182;2024-03-06T14:27:11;7.80;99.90
18147;DHT22;9199;48.832;9.182;2024-03-06T14:29:38;7.80;99.90
18147;DHT22;9199;48.832;9.182;2024-03-06T14:32:07;7.80;99.90
18147;DHT22;9199;48.832;9.182;2024-03-06T14:34:34;7.90;99.90
18147;DHT22;9199;48.832;9.182;2024-03-06T14:37:01;7.90;99.90
18147;DHT22;9199;48.832;9.182;2024-03-06T14:39:27;7.90;99.90
18147;DHT22;9199;48.832;9.182;2024-03-06T14:41:55;7.90;99.90
18147;DHT22;9199;48.832;9.182;2024-03-06T14:44:21;7.90;99.90
18147;DHT22;9199;48.832;9.182;2024-03-06T14:46:48;8.00;99.90
18147;DHT22;9199;48.832;9.182;2024-03-06T14:49:16;8.00;99.90
18147;DHT22;9199;48.832;9.182;2024-03-06T14:51:43;8.00;99.90
18147;DHT22;9199;48.832;9.182;2024-03-06T14:54:10;8.00;99.90
18147;DHT22;9199;48.832;9.182;2024-03-06T14:56:37;8.10;99.90
18147;DHT22;9199;48.832;9.182;2024-03-06T14:59:04;8.10;99.90
18147;DHT22;9199;48.832;9.182;2024-03-06T15:01:30;8.10;99.90
18147;DHT22;9199;48.832;9.182;2024-03-06T15:03:57;8.10;99.90
18147;DHT22;9199;48.832;9.182;2024-03-06T15:06:26;8.10;99.90
18147;DHT22;9199;48.832;9.182;2024-03-06T15:08:53;8.10;99.90
18147;DHT22;9199;48.832;9.182;2024-03-06T15:11:19;8.10;99.90
18147;DHT22;9199;48.832;9.182;2024-03-06T15:13:47;8.10;99.90
18147;DHT22;9199;48.832;9.182;2024-03-06T15:16:14;8.10;99.90
18147;DHT22;9199;48.832;9.182;2024-03-06T15:18:41;8.10;99.90
18147;DHT22;9199;48.832;9.182;2024-03-06T15:21:09;8.10;99.90
18147;DHT22;9199;48.832;9.182;2024-03-06T15:23:38;8.10;99.90
18147;DHT22;9199;48.832;9.182;2024-03-06T15:26:05;8.10;99.90
18147;DHT22;9199;48.832;9.182;2024-03-06T15:28:32;8.10;99.90
18147;DHT22;9199;48.832;9.182;2024-03-06T15:30:58;8.10;99.90
18147;DHT22;9199;48.832;9.182;2024-03-06T15:33:29;8.10;99.90
18147;DHT22;9199;48.832;9.182;2024-03-06T15:35:56;8.10;99.90
18147;DHT22;9199;48.832;9.182;2024-03-06T15:38:24;8.00;99.90
18147;DHT22;9199;48.832;9.182;2024-03-06T15:40:52;8.00;99.90
18147;DHT22;9199;48.832;9.182;2024-03-06T15:43:19;8.00;99.90
18147;DHT22;9199;48.832;9.182;2024-03-06T15:45:46;8.00;99.90
18147;DHT22;9199;48.832;9.182;2024-03-06T15:48:12;7.90;99.90
18147;DHT22;9199;48.832;9.182;2024-03-06T15:50:39;8.00;99.90
18147;DHT22;9199;48.832;9.182;2024-03-06T15:53:06;8.00;99.90
18147;DHT22;9199;48.832;9.182;2024-03-06T15:55:37;8.00;99.90
18147;DHT22;9199;48.832;9.182;2024-03-06T15:58:05;8.00;99.90
18147;DHT22;9199;48.832;9.182;2024-03-06T16:00:31;8.00;99.90
18147;DHT22;9199;48.832;9.182;2024-03-06T16:02:58;8.00;99.90